Latest Weather Observations for Dennes Point

IDT60801

Issued at 9:11 am EDT Wednesday 23 October 2019 (issued every 10 minutes, with the page automatically refreshed every 10 minutes)

About weather observations | Map of weather stations | Latest weather observations for TAS | Other Formats
Station Details ID: 094255 Name: DENNES POINT Lat: -43.06 Lon: 147.36 Height: 5.67 m
Data from the previous 72 hours. | See also: Recent months at Dennes Point
Date/Time
EDT
Temp
°C
App
Temp
°C
Dew
Point
°C
Rel
Hum
%
Delta-T
°C
Wind Press
QNH
hPa
Press
MSL
hPa
Rain since
9am
mm
Dir  Spd
km/h
Gust
km/h
Spd
kts
Gust
kts
23/09:00am 13.4 10.6 10.0 80 1.7 ESE 15 17 8 9 1017.7 1017.7 0.0
23/08:30am 13.9 13.0 9.1 73 2.4 SSE 4 7 2 4 1017.7 1017.7 0.0
23/08:00am 13.1 11.5 10.3 83 1.4 ESE 9 13 5 7 1017.3 1017.3 0.0
23/07:30am 11.7 10.3 8.9 83 1.4 SSW 6 7 3 4 1017.7 1017.7 0.0
23/07:00am 11.5 9.9 8.9 84 1.3 SSW 7 9 4 5 1017.3 1017.3 0.0
23/06:30am 11.5 9.8 8.5 82 1.5 SSW 7 11 4 6 1016.9 1016.9 0.0
23/06:00am 11.9 10.5 8.7 81 1.6 SW 6 9 3 5 1016.7 1016.7 0.0
23/05:30am 11.8 10.3 8.3 79 1.7 SW 6 7 3 4 1016.7 1016.7 0.0
23/05:00am 11.7 9.8 6.6 71 2.4 SW 6 9 3 5 1016.6 1016.6 0.0
23/04:30am 12.6 11.8 8.1 74 2.2 NE 2 4 1 2 1016.6 1016.6 0.0
23/04:00am 12.8 11.3 8.5 75 2.1 NNE 6 9 3 5 1016.8 1016.8 0.0
23/03:30am 12.6 9.7 9.6 82 1.5 NNE 15 17 8 9 1017.0 1017.0 0.0
23/03:00am 12.2 10.2 10.3 88 1.0 NNE 11 17 6 9 1017.3 1017.3 0.0
23/02:30am 11.9 10.1 9.6 86 1.2 NNE 9 11 5 6 1018.2 1018.2 0.0
23/02:00am 11.9 9.4 9.8 87 1.1 N 13 15 7 8 1018.7 1018.7 0.0
23/01:30am 10.7 10.5 9.0 89 0.8 CALM 0 4 0 2 1019.2 1019.2 0.0
23/01:00am 10.9 10.6 8.8 87 1.0 CALM 0 0 0 0 1020.0 1020.0 0.0
23/12:30am 10.8 9.8 8.7 87 1.0 SW 4 6 2 3 1020.2 1020.2 0.0
23/12:00am 11.5 11.2 8.5 82 1.5 CALM 0 0 0 0 1020.3 1020.3 0.0
 
Date/Time
EDT
Temp
°C
App
Temp
°C
Dew
Point
°C
Rel
Hum
%
Delta-T
°C
Wind Press
QNH
hPa
Press
MSL
hPa
Rain since
9am
mm
Dir  Spd
km/h
Gust
km/h
Spd
kts
Gust
kts
22/11:30pm 11.8 10.8 8.8 82 1.5 N 4 4 2 2 1020.1 1020.1 0.0
22/11:00pm 11.9 10.7 9.5 85 1.2 NNW 6 9 3 5 1020.0 1020.0 0.0
22/10:30pm 10.7 9.6 8.3 85 1.2 WSW 4 4 2 2 1020.4 1020.4 0.0
22/10:00pm 10.8 9.6 8.0 83 1.4 SW 4 4 2 2 1020.8 1020.8 0.0
22/09:30pm 11.2 10.5 8.4 83 1.4 WSW 2 6 1 3 1021.0 1021.0 0.0
22/09:00pm 10.8 10.3 7.7 81 1.5 CALM 0 0 0 0 1021.0 1021.0 0.0
22/08:30pm 10.9 10.4 7.8 81 1.5 CALM 0 0 0 0 1020.9 1020.9 0.0
22/08:00pm 11.6 10.4 7.9 78 1.8 SE 4 6 2 3 1020.9 1020.9 0.0
22/07:30pm 12.4 10.8 7.9 74 2.2 SSE 6 11 3 6 1020.8 1020.8 0.0
22/07:00pm 13.3 10.4 8.0 70 2.6 SE 13 19 7 10 1020.6 1020.6 0.0
22/06:30pm 14.4 12.2 7.7 64 3.3 SSE 9 15 5 8 1020.7 1020.7 0.0
22/06:00pm 15.0 13.1 9.1 68 3.0 ESE 9 13 5 7 1020.6 1020.6 0.0
22/05:30pm 16.1 14.7 8.8 62 3.7 SSW 6 13 3 7 1020.3 1020.3 0.0
22/05:00pm 15.2 11.9 8.2 63 3.5 ESE 15 19 8 10 1020.1 1020.1 0.0
22/04:30pm 15.5 12.6 8.0 61 3.8 ESE 13 19 7 10 1020.2 1020.2 0.0
22/04:00pm 15.6 12.0 8.4 62 3.6 ESE 17 24 9 13 1020.4 1020.4 0.0
22/03:30pm 16.2 11.9 9.4 64 3.5 E 22 24 12 13 1020.7 1020.7 0.0
22/03:00pm 16.1 12.8 9.5 65 3.4 ESE 17 22 9 12 1021.2 1021.2 0.0
22/02:30pm 16.7 13.2 7.4 54 4.6 ESE 15 19 8 10 1021.4 1021.4 0.0
22/02:00pm 15.6 11.6 6.6 55 4.4 ESE 17 20 9 11 1021.8 1021.8 0.0
22/01:30pm 15.4 12.1 8.2 62 3.6 ESE 15 19 8 10 1022.1 1022.1 0.0
22/01:00pm 15.1 11.7 7.6 61 3.7 ESE 15 19 8 10 1022.5 1022.5 0.0
22/12:30pm 14.4 11.0 7.5 63 3.4 ESE 15 17 8 9 1022.9 1022.9 0.0
22/12:00pm 14.1 10.9 6.7 61 3.6 E 13 15 7 8 1023.3 1023.3 0.0
22/11:30am 13.8 11.3 6.7 62 3.4 NNE 9 11 5 6 1023.8 1023.8 0.0
22/11:00am 13.7 11.3 6.8 63 3.3 NNE 9 11 5 6 1024.3 1024.3 0.0
22/10:30am 12.5 9.1 5.9 64 3.1 N 13 15 7 8 1024.6 1024.6 0.0
22/10:00am 11.9 8.5 6.0 67 2.7 N 13 17 7 9 1024.7 1024.7 0.0
22/09:30am 11.7 8.7 6.2 69 2.6 N 11 13 6 7 1025.0 1025.0 0.0
22/09:00am 11.8 9.8 6.1 68 2.7 NNE 6 6 3 3 1024.9 1024.9 0.0
22/08:30am 11.7 10.5 4.4 61 3.3 CALM 0 4 0 2 1025.1 1025.1 0.0
22/08:00am 11.4 9.9 4.8 64 3.0 WSW 2 6 1 3 1024.7 1024.7 0.0
22/07:30am 10.1 7.9 5.1 71 2.3 SSW 6 7 3 4 1024.4 1024.4 0.0
22/07:00am 8.9 7.0 4.7 75 1.9 WSW 4 4 2 2 1024.3 1024.3 0.0
22/06:30am 8.4 6.0 4.4 76 1.8 SW 6 7 3 4 1024.1 1024.1 0.0
22/06:00am 8.4 6.4 4.4 76 1.7 SW 4 6 2 3 1023.8 1023.8 0.0
22/05:30am 8.7 6.7 4.5 75 1.9 SW 4 4 2 2 1023.5 1023.5 0.0
22/05:00am 9.0 6.6 4.4 73 2.0 SW 6 7 3 4 1023.5 1023.5 0.0
22/04:30am 9.2 7.2 4.4 72 2.1 SSW 4 6 2 3 1023.2 1023.2 0.0
22/04:00am 9.3 6.9 4.3 71 2.2 SSW 6 11 3 6 1023.1 1023.1 0.0
22/03:30am 10.1 6.8 4.7 69 2.4 W 11 19 6 10 1023.0 1023.0 0.0
22/03:00am 10.7 4.9 4.6 66 2.7 WSW 24 30 13 16 1023.0 1023.0 0.0
22/02:30am 10.5 6.2 5.1 69 2.5 WSW 17 20 9 11 1023.1 1023.1 0.0
22/02:00am 10.7 6.3 5.0 68 2.6 WSW 17 30 9 16 1023.2 1023.2 0.0
22/01:30am 10.4 7.9 4.5 67 2.6 WNW 7 17 4 9 1023.4 1023.4 0.0
22/01:00am 10.6 6.6 4.9 68 2.6 WSW 15 22 8 12 1023.5 1023.5 0.0
22/12:30am 10.9 7.7 5.0 67 2.7 WSW 11 20 6 11 1023.5 1023.5 0.0
22/12:00am 11.3 6.5 4.7 64 3.0 WSW 19 24 10 13 1023.4 1023.4 0.0
 
Date/Time
EDT
Temp
°C
App
Temp
°C
Dew
Point
°C
Rel
Hum
%
Delta-T
°C
Wind Press
QNH
hPa
Press
MSL
hPa
Rain since
9am
mm
Dir  Spd
km/h
Gust
km/h
Spd
kts
Gust
kts
21/11:30pm 11.4 7.1 5.1 65 2.9 WSW 17 26 9 14 1023.3 1023.3 0.0
21/11:00pm 11.8 7.1 5.2 64 3.0 WSW 19 26 10 14 1023.2 1023.2 0.0
21/10:30pm 11.7 7.9 5.6 66 2.8 WSW 15 20 8 11 1023.2 1023.2 0.0
21/10:00pm 12.0 7.5 5.9 66 2.8 SW 19 24 10 13 1022.9 1022.9 0.0
21/09:30pm 12.2 8.7 5.4 63 3.2 SW 13 32 7 17 1023.0 1023.0 0.0
21/09:00pm 11.4 9.0 7.1 75 2.0 SW 9 19 5 10 1022.6 1022.6 0.0
21/08:30pm 12.6 10.5 9.6 82 1.5 N 11 15 6 8 1022.5 1022.5 0.0
21/08:00pm 12.9 10.5 9.9 82 1.5 N 13 17 7 9 1022.3 1022.3 0.0
21/07:30pm 13.2 11.4 9.5 78 1.9 NNE 9 13 5 7 1021.9 1021.9 0.0
21/07:00pm 13.4 12.3 10.0 80 1.7 NNE 6 7 3 4 1021.6 1021.6 0.0
21/06:30pm 14.3 11.6 8.9 70 2.7 ESE 13 17 7 9 1021.4 1021.4 0.0
21/06:00pm 14.2 10.8 9.2 72 2.5 ESE 17 22 9 12 1021.1 1021.1 0.0
21/05:30pm 14.5 11.0 8.7 68 2.9 ESE 17 20 9 11 1020.8 1020.8 0.0
21/05:00pm 14.4 11.2 10.0 75 2.3 ESE 17 19 9 10 1020.6 1020.6 0.0
21/04:30pm 14.7 11.3 10.5 76 2.2 ESE 19 22 10 12 1020.7 1020.7 0.0
21/04:00pm 15.2 11.4 9.1 67 3.1 ESE 19 24 10 13 1020.7 1020.7 0.0
21/03:30pm 14.9 10.7 8.4 65 3.3 ESE 20 26 11 14 1020.9 1020.9 0.0
21/03:00pm 14.9 10.8 8.6 66 3.2 ESE 20 28 11 15 1021.0 1021.0 0.0
21/02:30pm 15.0 10.6 8.9 67 3.1 ESE 22 26 12 14 1021.1 1021.1 0.0
21/02:00pm 14.9 10.5 9.1 68 3.0 ESE 22 30 12 16 1021.1 1021.1 0.0
21/01:30pm 14.7 11.4 9.7 72 2.6 ESE 17 28 9 15 1021.2 1021.2 0.0
21/01:00pm 19.5 16.1 5.9 41 6.7 WSW 13 22 7 12 1021.0 1021.0 0.0
21/12:30pm 19.1 14.3 5.6 41 6.6 W 20 28 11 15 1021.0 1021.0 0.0
21/12:00pm 18.0 16.0 7.1 49 5.4 N 7 19 4 10 1021.5 1021.5 0.0
21/11:30am 18.1 14.3 6.0 45 5.9 WNW 15 22 8 12 1021.7 1021.7 0.0
21/11:00am 16.9 14.6 4.6 44 5.8 NW 6 13 3 7 1021.9 1021.9 0.0
21/10:30am 16.2 13.3 4.6 46 5.5 WNW 9 15 5 8 1022.0 1022.0 0.0
21/10:00am 15.9 11.7 5.5 50 5.0 W 17 28 9 15 1022.0 1022.0 0.0
21/09:30am 15.2 13.5 5.7 53 4.5 NNW 4 7 2 4 1022.1 1022.1 0.0
21/09:00am 14.8 12.0 5.3 53 4.5 NNE 9 19 5 10 1021.9 1021.9 0.0
21/08:30am 14.0 10.5 5.4 56 4.0 WNW 13 20 7 11 1021.8 1021.8 0.0
21/08:00am 13.2 8.6 5.4 59 3.6 WNW 19 28 10 15 1021.5 1021.5 0.0
21/07:30am 12.7 8.4 5.4 61 3.4 W 17 24 9 13 1021.2 1021.2 0.0
21/07:00am 12.1 6.8 5.0 62 3.2 W 22 32 12 17 1020.9 1020.9 0.0
21/06:30am 11.8 7.2 5.4 65 3.0 W 19 24 10 13 1020.7 1020.7 0.0
21/06:00am 11.6 7.0 5.5 66 2.8 W 19 28 10 15 1020.2 1020.2 0.0
21/05:30am 11.6 6.4 5.7 67 2.7 W 22 30 12 16 1020.0 1020.0 0.0
21/05:00am 11.7 5.7 5.3 65 2.9 W 26 46 14 25 1019.8 1019.8 0.0
21/04:57am 11.9 5.4 4.9 62 3.2 W 28 46 15 25 1019.8 1019.8 0.0
21/04:30am 11.8 6.2 5.2 64 3.0 W 24 35 13 19 1019.6 1019.6 0.0
21/04:00am 11.8 6.5 4.8 62 3.2 W 22 32 12 17 1019.5 1019.5 0.0
21/03:30am 11.9 4.6 4.6 61 3.3 W 32 43 17 23 1019.3 1019.3 0.0
21/03:05am 12.1 5.2 4.6 60 3.4 W 30 54 16 29 1019.2 1019.2 0.0
21/03:00am 12.0 4.5 4.7 61 3.3 W 33 50 18 27 1019.2 1019.2 0.0
21/02:51am 12.2 5.0 5.1 62 3.3 W 32 50 17 27 1019.1 1019.1 0.0
21/02:30am 12.0 6.7 5.2 63 3.1 W 22 43 12 23 1019.4 1019.4 0.0
21/02:00am 12.3 6.2 4.8 60 3.4 W 26 37 14 20 1019.2 1019.2 0.0
21/01:30am 11.9 9.2 5.5 65 3.0 WNW 9 20 5 11 1019.6 1019.6 0.0
21/01:00am 12.1 6.6 5.7 65 3.0 W 24 37 13 20 1019.3 1019.3 0.0
21/12:30am 12.4 7.2 5.6 63 3.2 W 22 39 12 21 1019.5 1019.5 0.0
21/12:00am 12.4 7.2 5.3 62 3.3 W 22 41 12 22 1019.5 1019.5 0.0
 
Date/Time
EDT
Temp
°C
App
Temp
°C
Dew
Point
°C
Rel
Hum
%
Delta-T
°C
Wind Press
QNH
hPa
Press
MSL
hPa
Rain since
9am
mm
Dir  Spd
km/h
Gust
km/h
Spd
kts
Gust
kts
20/11:30pm 12.2 8.0 5.8 65 3.0 WNW 17 30 9 16 1019.4 1019.4 0.0
20/11:00pm 12.3 6.1 6.1 66 2.9 W 28 46 15 25 1019.3 1019.3 0.0
20/10:32pm 12.7 5.1 5.8 63 3.2 WSW 35 54 19 29 1018.8 1018.8 0.0
20/10:30pm 12.7 5.1 5.6 62 3.3 WSW 35 48 19 26 1018.8 1018.8 0.0
20/10:00pm 12.8 4.8 5.9 63 3.2 WSW 37 52 20 28 1018.7 1018.7 0.0
20/09:31pm 13.0 3.9 5.9 62 3.3 WSW 43 63 23 34 1018.0 1018.0 0.0
20/09:30pm 13.0 4.4 6.4 64 3.1 WSW 41 54 22 29 1018.1 1018.1 0.0
20/09:13pm 13.2 4.5 5.9 61 3.4 WSW 41 59 22 32 1017.7 1017.7 0.0
20/09:00pm 13.2 3.5 5.9 61 3.4 WSW 46 59 25 32 1017.4 1017.4 0.0
20/08:35pm 13.3 4.3 6.2 62 3.4 WSW 43 61 23 33 1017.2 1017.2 0.0
20/08:30pm 13.3 4.1 6.4 63 3.3 WSW 44 61 24 33 1017.1 1017.1 0.0
20/08:29pm 13.3 4.3 6.2 62 3.4 WSW 43 61 23 33 1017.1 1017.1 0.0
20/08:00pm 13.5 6.4 6.4 62 3.4 W 33 48 18 26 1016.8 1016.8 0.0
20/07:30pm 13.6 7.2 6.9 64 3.2 WSW 30 41 16 22 1016.5 1016.5 0.0
20/07:00pm 14.0 7.6 6.8 62 3.5 W 30 44 16 24 1016.0 1016.0 0.0
20/06:30pm 14.2 8.7 7.5 64 3.3 WSW 26 37 14 20 1015.6 1015.6 0.0
20/06:00pm 14.9 8.2 7.5 61 3.7 W 32 52 17 28 1015.1 1015.1 0.0
20/05:58pm 15.1 8.8 7.4 60 3.8 WSW 30 50 16 27 1015.0 1015.0 0.0
20/05:30pm 15.3 7.6 7.3 59 4.0 W 37 52 20 28 1014.7 1014.7 0.0
20/05:00pm 15.9 7.6 7.9 59 4.0 W 41 52 22 28 1013.9 1013.9 0.0
20/04:30pm 16.1 7.6 7.1 55 4.5 WSW 41 56 22 30 1013.7 1013.7 0.0
20/04:00pm 15.7 7.7 7.5 58 4.1 WSW 39 54 21 29 1013.3 1013.3 0.0
20/03:30pm 16.2 8.3 7.7 57 4.3 WSW 39 54 21 29 1013.1 1013.1 0.0
20/03:08pm 16.5 7.8 7.7 56 4.4 WSW 43 63 23 34 1012.9 1012.9 0.0
20/03:00pm 15.9 6.5 7.1 56 4.3 WSW 46 57 25 31 1012.9 1012.9 0.0
20/02:34pm 16.5 7.5 7.2 54 4.6 WSW 44 65 24 35 1012.6 1012.6 0.0
20/02:30pm 15.9 7.0 6.9 55 4.4 WSW 43 59 23 32 1012.6 1012.6 0.0
20/02:09pm 16.6 8.7 7.8 56 4.4 WSW 39 63 21 34 1012.3 1012.3 0.0
20/02:00pm 16.9 8.2 7.8 55 4.6 WSW 43 59 23 32 1012.4 1012.4 0.0
20/01:47pm 16.7 8.0 7.6 55 4.6 WSW 43 65 23 35 1012.2 1012.2 0.0
20/01:30pm 15.6 6.7 6.9 56 4.3 WSW 43 57 23 31 1012.2 1012.2 0.0
20/01:12pm 16.0 8.4 7.5 57 4.2 WSW 37 57 20 31 1011.9 1011.9 0.0
20/01:00pm 16.0 9.2 7.0 55 4.4 WSW 32 48 17 26 1012.2 1012.2 0.0
20/12:33pm 15.2 8.2 7.0 58 4.0 WSW 33 54 18 29 1012.0 1012.0 0.0
20/12:30pm 15.4 9.1 7.4 59 4.0 WSW 30 37 16 20 1012.0 1012.0 0.0
20/12:00pm 15.6 8.8 6.9 56 4.3 WSW 32 52 17 28 1011.7 1011.7 0.0
20/11:59am 15.9 9.5 7.1 56 4.3 WSW 30 50 16 27 1011.7 1011.7 0.0
20/11:30am 15.6 8.3 7.4 58 4.1 WSW 35 50 19 27 1011.5 1011.5 0.0
20/11:13am 15.1 8.3 6.7 57 4.1 W 32 56 17 30 1011.2 1011.2 0.0
20/11:00am 15.1 9.8 6.9 58 4.0 W 24 44 13 24 1011.4 1011.4 0.0
20/10:30am 15.0 9.4 7.1 59 3.9 W 26 48 14 26 1011.4 1011.4 0.0
20/10:23am 14.7 8.5 6.3 57 4.0 WSW 28 48 15 26 1011.2 1011.2 0.0
20/10:00am 13.6 5.1 6.9 64 3.2 WSW 41 59 22 32 1011.2 1011.2 0.0
20/09:30am 13.5 7.4 6.4 62 3.4 WSW 28 50 15 27 1010.6 1010.6 0.0

Other formats

Comma delimited format used in spreadsheet applications
http://www.bom.gov.au/fwo/IDT60801/IDT60801.94988.axf

JavaScript Object Notation format (JSON) in row-major order
http://www.bom.gov.au/fwo/IDT60801/IDT60801.94988.json

Data quality

Most of these data are generated automatically and are frequently updated. Quality checks on data are not normally performed. It is possible for incorrect values to appear. Refer to information at About Latest Weather Observations and please check the disclaimer before using these data.